sensor_id;sensor_type;location;lat;lon;timestamp;temperature;humidity
25200;DHT22;33094;48.782;9.162;2023-02-22T00:01:15;8.20;99.90
25200;DHT22;33094;48.782;9.162;2023-02-22T00:03:53;9.50;99.90
25200;DHT22;33094;48.782;9.162;2023-02-22T00:06:20;7.40;99.90
25200;DHT22;33094;48.782;9.162;2023-02-22T00:08:48;9.00;99.90
25200;DHT22;33094;48.782;9.162;2023-02-22T00:11:15;7.30;99.90
25200;DHT22;33094;48.782;9.162;2023-02-22T00:13:41;8.40;99.90
25200;DHT22;33094;48.782;9.162;2023-02-22T00:16:13;7.20;99.90
25200;DHT22;33094;48.782;9.162;2023-02-22T00:18:38;7.40;99.90
25200;DHT22;33094;48.782;9.162;2023-02-22T00:21:04;9.50;99.90
25200;DHT22;33094;48.782;9.162;2023-02-22T00:23:30;7.90;99.90
25200;DHT22;33094;48.782;9.162;2023-02-22T00:25:57;8.20;99.90
25200;DHT22;33094;48.782;9.162;2023-02-22T00:28:23;7.20;99.90
25200;DHT22;33094;48.782;9.162;2023-02-22T00:30:50;7.20;99.90
25200;DHT22;33094;48.782;9.162;2023-02-22T00:33:16;8.60;99.90
25200;DHT22;33094;48.782;9.162;2023-02-22T00:35:43;7.20;99.90
25200;DHT22;33094;48.782;9.162;2023-02-22T00:38:10;9.50;99.90
25200;DHT22;33094;48.782;9.162;2023-02-22T00:40:36;9.00;99.90
25200;DHT22;33094;48.782;9.162;2023-02-22T00:43:04;7.10;99.90
25200;DHT22;33094;48.782;9.162;2023-02-22T00:45:32;7.00;99.90
25200;DHT22;33094;48.782;9.162;2023-02-22T00:47:58;8.60;99.90
25200;DHT22;33094;48.782;9.162;2023-02-22T00:50:26;9.00;99.90
25200;DHT22;33094;48.782;9.162;2023-02-22T00:52:52;7.90;99.90
25200;DHT22;33094;48.782;9.162;2023-02-22T00:55:24;6.80;99.90
25200;DHT22;33094;48.782;9.162;2023-02-22T00:57:51;7.00;99.90
25200;DHT22;33094;48.782;9.162;2023-02-22T01:00:20;6.70;99.90
25200;DHT22;33094;48.782;9.162;2023-02-22T01:02:46;8.50;99.90
25200;DHT22;33094;48.782;9.162;2023-02-22T01:05:16;9.60;99.90
25200;DHT22;33094;48.782;9.162;2023-02-22T01:07:42;6.70;99.90
25200;DHT22;33094;48.782;9.162;2023-02-22T01:10:09;8.80;99.90
25200;DHT22;33094;48.782;9.162;2023-02-22T01:12:36;6.60;99.90
25200;DHT22;33094;48.782;9.162;2023-02-22T01:15:03;7.40;99.90
25200;DHT22;33094;48.782;9.162;2023-02-22T01:17:28;6.60;99.90
25200;DHT22;33094;48.782;9.162;2023-02-22T01:19:54;7.10;99.90
25200;DHT22;33094;48.782;9.162;2023-02-22T01:22:21;8.10;99.90
25200;DHT22;33094;48.782;9.162;2023-02-22T01:24:48;6.50;99.90
25200;DHT22;33094;48.782;9.162;2023-02-22T01:27:13;6.20;99.90
25200;DHT22;33094;48.782;9.162;2023-02-22T01:29:39;6.40;99.90
25200;DHT22;33094;48.782;9.162;2023-02-22T01:32:06;8.00;99.90
25200;DHT22;33094;48.782;9.162;2023-02-22T01:34:32;7.00;99.90
25200;DHT22;33094;48.782;9.162;2023-02-22T01:36:59;6.40;99.90
25200;DHT22;33094;48.782;9.162;2023-02-22T01:39:25;7.40;99.90
25200;DHT22;33094;48.782;9.162;2023-02-22T01:41:51;6.10;99.90
25200;DHT22;33094;48.782;9.162;2023-02-22T01:44:30;8.90;99.90
25200;DHT22;33094;48.782;9.162;2023-02-22T01:46:57;6.40;99.90
25200;DHT22;33094;48.782;9.162;2023-02-22T01:49:23;8.40;99.90
25200;DHT22;33094;48.782;9.162;2023-02-22T01:51:52;8.00;99.90
25200;DHT22;33094;48.782;9.162;2023-02-22T01:54:42;6.20;99.90
25200;DHT22;33094;48.782;9.162;2023-02-22T01:59:36;6.50;99.90
25200;DHT22;33094;48.782;9.162;2023-02-22T02:02:05;6.50;99.90
25200;DHT22;33094;48.782;9.162;2023-02-22T02:04:32;6.20;99.90
25200;DHT22;33094;48.782;9.162;2023-02-22T02:07:04;6.30;99.90
25200;DHT22;33094;48.782;9.162;2023-02-22T02:09:59;6.20;99.90
25200;DHT22;33094;48.782;9.162;2023-02-22T02:12:31;6.20;99.90
25200;DHT22;33094;48.782;9.162;2023-02-22T02:15:29;8.10;99.90
25200;DHT22;33094;48.782;9.162;2023-02-22T02:18:00;6.10;99.90
25200;DHT22;33094;48.782;9.162;2023-02-22T02:20:43;6.10;99.90
25200;DHT22;33094;48.782;9.162;2023-02-22T02:29:02;6.00;99.90
25200;DHT22;33094;48.782;9.162;2023-02-22T02:37:25;6.00;99.90
25200;DHT22;33094;48.782;9.162;2023-02-22T02:42:53;5.90;99.90
25200;DHT22;33094;48.782;9.162;2023-02-22T02:45:30;6.00;99.90
25200;DHT22;33094;48.782;9.162;2023-02-22T08:47:45;7.60;99.90
25200;DHT22;33094;48.782;9.162;2023-02-22T08:50:23;7.40;99.90
25200;DHT22;33094;48.782;9.162;2023-02-22T08:52:50;7.70;99.90
25200;DHT22;33094;48.782;9.162;2023-02-22T08:55:22;9.10;99.90
25200;DHT22;33094;48.782;9.162;2023-02-22T08:57:47;7.80;99.90
25200;DHT22;33094;48.782;9.162;2023-02-22T09:00:16;9.40;99.90
25200;DHT22;33094;48.782;9.162;2023-02-22T09:02:43;8.10;99.90
25200;DHT22;33094;48.782;9.162;2023-02-22T09:05:08;10.70;99.90
25200;DHT22;33094;48.782;9.162;2023-02-22T09:07:57;8.30;99.90
25200;DHT22;33094;48.782;9.162;2023-02-22T09:10:32;8.40;99.90
25200;DHT22;33094;48.782;9.162;2023-02-22T09:12:59;9.80;99.90
25200;DHT22;33094;48.782;9.162;2023-02-22T09:15:26;6.70;99.90
25200;DHT22;33094;48.782;9.162;2023-02-22T09:17:52;10.00;99.90
25200;DHT22;33094;48.782;9.162;2023-02-22T09:20:24;9.90;99.90
25200;DHT22;33094;48.782;9.162;2023-02-22T09:25:25;9.00;99.90
25200;DHT22;33094;48.782;9.162;2023-02-22T09:27:53;7.30;99.90
25200;DHT22;33094;48.782;9.162;2023-02-22T09:30:25;7.30;99.90
25200;DHT22;33094;48.782;9.162;2023-02-22T09:32:58;8.00;99.90
25200;DHT22;33094;48.782;9.162;2023-02-22T09:35:25;8.30;99.90
25200;DHT22;33094;48.782;9.162;2023-02-22T09:37:55;9.50;99.90
25200;DHT22;33094;48.782;9.162;2023-02-22T09:40:22;9.80;99.90
25200;DHT22;33094;48.782;9.162;2023-02-22T09:51:24;10.40;99.90
25200;DHT22;33094;48.782;9.162;2023-02-22T09:53:56;10.20;99.90
25200;DHT22;33094;48.782;9.162;2023-02-22T09:56:26;10.60;99.90
25200;DHT22;33094;48.782;9.162;2023-02-22T09:59:00;11.00;99.90
25200;DHT22;33094;48.782;9.162;2023-02-22T10:01:47;12.80;99.90
25200;DHT22;33094;48.782;9.162;2023-02-22T10:07:19;15.00;99.90
25200;DHT22;33094;48.782;9.162;2023-02-22T10:09:51;14.80;99.90
25200;DHT22;33094;48.782;9.162;2023-02-22T10:18:19;15.50;99.90
25200;DHT22;33094;48.782;9.162;2023-02-22T10:20:52;15.10;99.90
25200;DHT22;33094;48.782;9.162;2023-02-22T10:23:48;13.70;99.90
25200;DHT22;33094;48.782;9.162;2023-02-22T10:26:20;13.10;99.90
25200;DHT22;33094;48.782;9.162;2023-02-22T10:29:05;13.00;99.90
25200;DHT22;33094;48.782;9.162;2023-02-22T10:31:42;13.00;99.90
25200;DHT22;33094;48.782;9.162;2023-02-22T10:34:36;15.60;99.90
25200;DHT22;33094;48.782;9.162;2023-02-22T10:42:36;13.10;99.90
25200;DHT22;33094;48.782;9.162;2023-02-22T10:47:46;13.60;99.90
25200;DHT22;33094;48.782;9.162;2023-02-22T10:53:42;15.30;99.90
25200;DHT22;33094;48.782;9.162;2023-02-22T10:56:46;14.20;99.90
25200;DHT22;33094;48.782;9.162;2023-02-22T10:59:26;15.80;99.90
25200;DHT22;33094;48.782;9.162;2023-02-22T11:01:52;15.20;99.90
25200;DHT22;33094;48.782;9.162;2023-02-22T11:04:19;15.10;99.90
25200;DHT22;33094;48.782;9.162;2023-02-22T11:06:49;15.30;99.90
25200;DHT22;33094;48.782;9.162;2023-02-22T11:09:30;13.90;99.90
25200;DHT22;33094;48.782;9.162;2023-02-22T11:12:14;15.70;99.90
25200;DHT22;33094;48.782;9.162;2023-02-22T11:14:40;14.10;99.90
25200;DHT22;33094;48.782;9.162;2023-02-22T11:19:48;14.50;99.90
25200;DHT22;33094;48.782;9.162;2023-02-22T11:22:26;15.10;99.90
25200;DHT22;33094;48.782;9.162;2023-02-22T11:25:00;14.90;99.90
25200;DHT22;33094;48.782;9.162;2023-02-22T11:27:43;14.50;99.90
25200;DHT22;33094;48.782;9.162;2023-02-22T11:32:49;15.00;99.90
25200;DHT22;33094;48.782;9.162;2023-02-22T12:02:50;15.20;99.90
25200;DHT22;33094;48.782;9.162;2023-02-22T12:08:41;15.40;99.90
25200;DHT22;33094;48.782;9.162;2023-02-22T12:11:21;16.00;99.90
25200;DHT22;33094;48.782;9.162;2023-02-22T12:14:03;15.90;99.90
25200;DHT22;33094;48.782;9.162;2023-02-22T12:16:36;17.40;99.90
25200;DHT22;33094;48.782;9.162;2023-02-22T12:19:26;16.20;99.90
25200;DHT22;33094;48.782;9.162;2023-02-22T12:22:02;16.20;99.90
25200;DHT22;33094;48.782;9.162;2023-02-22T12:24:56;16.20;99.90
25200;DHT22;33094;48.782;9.162;2023-02-22T12:30:05;15.00;99.90
25200;DHT22;33094;48.782;9.162;2023-02-22T12:32:49;15.40;99.90
25200;DHT22;33094;48.782;9.162;2023-02-22T12:35:22;15.70;99.90
25200;DHT22;33094;48.782;9.162;2023-02-22T12:41:08;15.40;99.90
25200;DHT22;33094;48.782;9.162;2023-02-22T12:46:48;15.10;99.90
25200;DHT22;33094;48.782;9.162;2023-02-22T12:49:35;13.10;99.90
25200;DHT22;33094;48.782;9.162;2023-02-22T12:54:54;16.00;99.90
25200;DHT22;33094;48.782;9.162;2023-02-22T12:59:58;15.90;99.90
25200;DHT22;33094;48.782;9.162;2023-02-22T13:02:47;15.80;99.90
25200;DHT22;33094;48.782;9.162;2023-02-22T13:05:16;15.60;99.90
25200;DHT22;33094;48.782;9.162;2023-02-22T13:10:54;15.50;99.90
25200;DHT22;33094;48.782;9.162;2023-02-22T13:13:46;15.60;99.90
25200;DHT22;33094;48.782;9.162;2023-02-22T13:16:52;15.50;99.90
25200;DHT22;33094;48.782;9.162;2023-02-22T13:24:46;16.90;99.90
25200;DHT22;33094;48.782;9.162;2023-02-22T13:29:46;17.60;99.90
25200;DHT22;33094;48.782;9.162;2023-02-22T13:35:34;16.90;99.90
25200;DHT22;33094;48.782;9.162;2023-02-22T13:38:28;17.20;99.90
25200;DHT22;33094;48.782;9.162;2023-02-22T13:41:23;16.40;99.90
25200;DHT22;33094;48.782;9.162;2023-02-22T13:52:30;15.10;99.90
25200;DHT22;33094;48.782;9.162;2023-02-22T13:55:06;15.20;99.90
25200;DHT22;33094;48.782;9.162;2023-02-22T13:57:41;15.10;99.90
25200;DHT22;33094;48.782;9.162;2023-02-22T14:03:09;14.70;99.90
25200;DHT22;33094;48.782;9.162;2023-02-22T14:10:44;14.60;99.90
25200;DHT22;33094;48.782;9.162;2023-02-22T14:13:12;17.20;99.90
25200;DHT22;33094;48.782;9.162;2023-02-22T14:18:36;14.50;99.90
25200;DHT22;33094;48.782;9.162;2023-02-22T14:31:15;14.70;99.90
25200;DHT22;33094;48.782;9.162;2023-02-22T14:39:32;14.40;99.90
25200;DHT22;33094;48.782;9.162;2023-02-22T14:42:18;14.50;99.90
25200;DHT22;33094;48.782;9.162;2023-02-22T14:45:00;14.40;99.90
25200;DHT22;33094;48.782;9.162;2023-02-22T14:47:43;14.40;99.90
25200;DHT22;33094;48.782;9.162;2023-02-22T20:49:35;10.40;99.90
25200;DHT22;33094;48.782;9.162;2023-02-22T20:52:01;10.40;99.90
25200;DHT22;33094;48.782;9.162;2023-02-22T20:54:26;10.10;99.90
25200;DHT22;33094;48.782;9.162;2023-02-22T20:56:55;12.60;99.90
25200;DHT22;33094;48.782;9.162;2023-02-22T20:59:21;8.80;99.90
25200;DHT22;33094;48.782;9.162;2023-02-22T21:01:50;12.90;99.90
25200;DHT22;33094;48.782;9.162;2023-02-22T21:04:22;10.10;99.90
25200;DHT22;33094;48.782;9.162;2023-02-22T21:06:51;10.20;99.90
25200;DHT22;33094;48.782;9.162;2023-02-22T21:09:19;8.90;99.90
25200;DHT22;33094;48.782;9.162;2023-02-22T21:11:49;9.00;99.90
25200;DHT22;33094;48.782;9.162;2023-02-22T21:14:16;10.20;99.90
25200;DHT22;33094;48.782;9.162;2023-02-22T21:16:49;11.20;99.90
25200;DHT22;33094;48.782;9.162;2023-02-22T21:19:17;8.00;99.90
25200;DHT22;33094;48.782;9.162;2023-02-22T21:27:03;9.90;99.90
25200;DHT22;33094;48.782;9.162;2023-02-22T21:39:55;9.60;99.90
25200;DHT22;33094;48.782;9.162;2023-02-22T21:44:59;9.60;99.90
25200;DHT22;33094;48.782;9.162;2023-02-22T21:47:36;7.70;99.90
25200;DHT22;33094;48.782;9.162;2023-02-22T21:52:41;9.60;99.90
25200;DHT22;33094;48.782;9.162;2023-02-22T21:55:09;7.90;99.90
25200;DHT22;33094;48.782;9.162;2023-02-22T22:02:47;9.50;99.90
25200;DHT22;33094;48.782;9.162;2023-02-22T22:07:54;9.50;99.90
25200;DHT22;33094;48.782;9.162;2023-02-22T22:10:20;11.70;99.90
25200;DHT22;33094;48.782;9.162;2023-02-22T22:12:51;10.50;99.90
25200;DHT22;33094;48.782;9.162;2023-02-22T22:15:17;9.50;99.90
25200;DHT22;33094;48.782;9.162;2023-02-22T22:17:43;9.20;99.90
25200;DHT22;33094;48.782;9.162;2023-02-22T22:20:11;10.80;99.90
25200;DHT22;33094;48.782;9.162;2023-02-22T22:22:39;9.20;99.90
25200;DHT22;33094;48.782;9.162;2023-02-22T22:25:07;11.00;99.90
25200;DHT22;33094;48.782;9.162;2023-02-22T22:27:34;9.20;99.90
25200;DHT22;33094;48.782;9.162;2023-02-22T22:30:00;9.30;99.90
25200;DHT22;33094;48.782;9.162;2023-02-22T22:32:27;9.20;99.90
25200;DHT22;33094;48.782;9.162;2023-02-22T22:34:54;11.00;99.90
25200;DHT22;33094;48.782;9.162;2023-02-22T22:37:26;10.30;99.90
25200;DHT22;33094;48.782;9.162;2023-02-22T22:39:56;11.60;99.90
25200;DHT22;33094;48.782;9.162;2023-02-22T22:42:23;8.10;99.90
25200;DHT22;33094;48.782;9.162;2023-02-22T22:44:49;11.20;99.90
25200;DHT22;33094;48.782;9.162;2023-02-22T22:47:18;11.30;99.90
25200;DHT22;33094;48.782;9.162;2023-02-22T22:49:45;11.40;99.90
25200;DHT22;33094;48.782;9.162;2023-02-22T22:52:15;10.60;99.90
25200;DHT22;33094;48.782;9.162;2023-02-22T22:54:41;8.60;99.90
25200;DHT22;33094;48.782;9.162;2023-02-22T22:57:08;11.20;99.90
25200;DHT22;33094;48.782;9.162;2023-02-22T22:59:34;11.60;99.90
25200;DHT22;33094;48.782;9.162;2023-02-22T23:02:01;9.10;99.90
25200;DHT22;33094;48.782;9.162;2023-02-22T23:04:28;11.40;99.90
25200;DHT22;33094;48.782;9.162;2023-02-22T23:06:54;10.00;99.90
25200;DHT22;33094;48.782;9.162;2023-02-22T23:09:28;10.50;99.90
25200;DHT22;33094;48.782;9.162;2023-02-22T23:12:00;12.00;99.90
25200;DHT22;33094;48.782;9.162;2023-02-22T23:14:34;10.60;99.90
25200;DHT22;33094;48.782;9.162;2023-02-22T23:17:02;10.60;99.90
25200;DHT22;33094;48.782;9.162;2023-02-22T23:19:35;11.70;99.90
25200;DHT22;33094;48.782;9.162;2023-02-22T23:22:02;11.10;99.90
25200;DHT22;33094;48.782;9.162;2023-02-22T23:24:30;11.50;99.90
25200;DHT22;33094;48.782;9.162;2023-02-22T23:26:56;11.90;99.90
25200;DHT22;33094;48.782;9.162;2023-02-22T23:29:25;9.20;99.90
25200;DHT22;33094;48.782;9.162;2023-02-22T23:31:51;9.30;99.90
25200;DHT22;33094;48.782;9.162;2023-02-22T23:34:20;11.00;99.90
25200;DHT22;33094;48.782;9.162;2023-02-22T23:36:48;9.90;99.90
25200;DHT22;33094;48.782;9.162;2023-02-22T23:39:17;11.50;99.90
25200;DHT22;33094;48.782;9.162;2023-02-22T23:41:45;10.10;99.90
25200;DHT22;33094;48.782;9.162;2023-02-22T23:44:14;9.10;99.90
25200;DHT22;33094;48.782;9.162;2023-02-22T23:46:42;9.50;99.90
25200;DHT22;33094;48.782;9.162;2023-02-22T23:49:09;8.00;99.90
25200;DHT22;33094;48.782;9.162;2023-02-22T23:51:37;9.50;99.90
25200;DHT22;33094;48.782;9.162;2023-02-22T23:54:10;11.60;99.90
25200;DHT22;33094;48.782;9.162;2023-02-22T23:56:37;9.60;99.90
25200;DHT22;33094;48.782;9.162;2023-02-22T23:59:04;11.00;99.90
